sensor_id;sensor_type;location;lat;lon;timestamp;pressure;altitude;pressure_sealevel;temperature;humidity
48846;BME280;34665;51.886;5.436;2023-03-03T00:01:31;102307.94;;;10.44;91.33
48846;BME280;34665;51.886;5.436;2023-03-03T00:03:57;102303.78;;;10.76;89.76
48846;BME280;34665;51.886;5.436;2023-03-03T00:06:24;102302.72;;;10.69;89.63
48846;BME280;34665;51.886;5.436;2023-03-03T00:08:50;102315.44;;;10.67;90.91
48846;BME280;34665;51.886;5.436;2023-03-03T00:11:16;102309.47;;;10.73;90.38
48846;BME280;34665;51.886;5.436;2023-03-03T00:13:45;102302.69;;;10.95;89.70
48846;BME280;34665;51.886;5.436;2023-03-03T00:16:21;102304.81;;;10.92;88.30
48846;BME280;34665;51.886;5.436;2023-03-03T00:18:48;102303.34;;;10.89;89.59
48846;BME280;34665;51.886;5.436;2023-03-03T00:21:24;102298.78;;;10.81;90.86
48846;BME280;34665;51.886;5.436;2023-03-03T00:23:51;102303.47;;;10.79;89.82
48846;BME280;34665;51.886;5.436;2023-03-03T00:26:21;102306.56;;;11.09;88.44
48846;BME280;34665;51.886;5.436;2023-03-03T00:28:49;102308.75;;;11.14;88.29
48846;BME280;34665;51.886;5.436;2023-03-03T00:31:18;102305.03;;;11.07;88.37
48846;BME280;34665;51.886;5.436;2023-03-03T00:33:50;102300.66;;;10.97;88.68
48846;BME280;34665;51.886;5.436;2023-03-03T00:36:36;102302.81;;;10.85;88.65
48846;BME280;34665;51.886;5.436;2023-03-03T00:41:47;102307.72;;;11.07;88.04
48846;BME280;34665;51.886;5.436;2023-03-03T00:47:31;102298.66;;;10.91;88.46
48846;BME280;34665;51.886;5.436;2023-03-03T00:52:35;102311.09;;;11.09;86.48
48846;BME280;34665;51.886;5.436;2023-03-03T00:55:02;102308.09;;;11.12;86.44
48846;BME280;34665;51.886;5.436;2023-03-03T00:57:29;102313.25;;;11.05;86.38
48846;BME280;34665;51.886;5.436;2023-03-03T00:59:55;102311.31;;;10.81;87.42
48846;BME280;34665;51.886;5.436;2023-03-03T01:02:21;102309.84;;;10.95;86.61
48846;BME280;34665;51.886;5.436;2023-03-03T01:04:51;102304.41;;;11.13;85.86
48846;BME280;34665;51.886;5.436;2023-03-03T01:07:18;102313.06;;;11.07;85.98
48846;BME280;34665;51.886;5.436;2023-03-03T01:09:44;102324.41;;;10.92;86.84
48846;BME280;34665;51.886;5.436;2023-03-03T01:12:10;102316.72;;;10.97;86.70
48846;BME280;34665;51.886;5.436;2023-03-03T01:14:37;102323.16;;;11.13;85.19
48846;BME280;34665;51.886;5.436;2023-03-03T01:17:03;102322.09;;;10.97;85.54
48846;BME280;34665;51.886;5.436;2023-03-03T01:19:29;102320.09;;;10.99;85.56
48846;BME280;34665;51.886;5.436;2023-03-03T01:21:54;102323.09;;;10.96;85.71
48846;BME280;34665;51.886;5.436;2023-03-03T01:24:20;102329.13;;;11.07;85.38
48846;BME280;34665;51.886;5.436;2023-03-03T01:26:45;102323.78;;;11.07;84.87
48846;BME280;34665;51.886;5.436;2023-03-03T01:29:11;102326.47;;;11.07;85.00
48846;BME280;34665;51.886;5.436;2023-03-03T01:31:36;102328.72;;;11.36;83.44
48846;BME280;34665;51.886;5.436;2023-03-03T01:34:02;102332.19;;;11.12;84.05
48846;BME280;34665;51.886;5.436;2023-03-03T01:36:28;102317.41;;;10.99;84.74
48846;BME280;34665;51.886;5.436;2023-03-03T01:38:54;102326.22;;;10.83;85.49
48846;BME280;34665;51.886;5.436;2023-03-03T01:41:19;102332.44;;;10.57;86.20
48846;BME280;34665;51.886;5.436;2023-03-03T01:43:48;102329.44;;;10.95;84.52
48846;BME280;34665;51.886;5.436;2023-03-03T01:46:27;102334.66;;;10.62;85.79
48846;BME280;34665;51.886;5.436;2023-03-03T01:49:00;102339.91;;;10.80;85.36
48846;BME280;34665;51.886;5.436;2023-03-03T01:51:31;102335.38;;;10.81;85.55
48846;BME280;34665;51.886;5.436;2023-03-03T01:54:02;102335.34;;;10.64;86.00
48846;BME280;34665;51.886;5.436;2023-03-03T01:56:28;102341.06;;;10.78;85.41
48846;BME280;34665;51.886;5.436;2023-03-03T01:59:00;102335.72;;;10.78;85.87
48846;BME280;34665;51.886;5.436;2023-03-03T02:01:28;102336.31;;;10.98;85.06
48846;BME280;34665;51.886;5.436;2023-03-03T02:03:57;102333.09;;;10.86;84.18
48846;BME280;34665;51.886;5.436;2023-03-03T02:06:27;102337.81;;;10.92;84.22
48846;BME280;34665;51.886;5.436;2023-03-03T02:09:15;102338.69;;;10.66;85.23
48846;BME280;34665;51.886;5.436;2023-03-03T02:11:44;102338.91;;;11.24;82.67
48846;BME280;34665;51.886;5.436;2023-03-03T02:14:11;102348.47;;;11.27;82.26
48846;BME280;34665;51.886;5.436;2023-03-03T02:16:41;102343.44;;;11.24;82.44
48846;BME280;34665;51.886;5.436;2023-03-03T02:19:14;102337.91;;;11.25;82.23
48846;BME280;34665;51.886;5.436;2023-03-03T02:21:43;102340.75;;;11.24;81.96
48846;BME280;34665;51.886;5.436;2023-03-03T02:26:59;102333.13;;;11.45;80.56
48846;BME280;34665;51.886;5.436;2023-03-03T02:29:27;102333.13;;;11.62;80.29
48846;BME280;34665;51.886;5.436;2023-03-03T02:31:52;102335.94;;;11.52;80.56
48846;BME280;34665;51.886;5.436;2023-03-03T02:34:20;102334.59;;;11.31;81.26
48846;BME280;34665;51.886;5.436;2023-03-03T02:36:45;102341.91;;;11.21;81.21
48846;BME280;34665;51.886;5.436;2023-03-03T02:39:22;102335.66;;;11.04;81.39
48846;BME280;34665;51.886;5.436;2023-03-03T02:44:45;102335.00;;;11.10;81.74
48846;BME280;34665;51.886;5.436;2023-03-03T02:47:10;102336.13;;;11.51;80.03
48846;BME280;34665;51.886;5.436;2023-03-03T02:49:36;102332.41;;;11.27;80.72
48846;BME280;34665;51.886;5.436;2023-03-03T02:52:03;102332.66;;;11.07;81.85
48846;BME280;34665;51.886;5.436;2023-03-03T02:54:30;102333.88;;;11.13;82.01
48846;BME280;34665;51.886;5.436;2023-03-03T02:56:58;102329.00;;;11.16;82.11
48846;BME280;34665;51.886;5.436;2023-03-03T02:59:25;102327.19;;;11.17;82.42
48846;BME280;34665;51.886;5.436;2023-03-03T03:01:51;102328.78;;;11.01;82.84
48846;BME280;34665;51.886;5.436;2023-03-03T03:04:23;102331.81;;;11.07;82.96
48846;BME280;34665;51.886;5.436;2023-03-03T03:06:50;102339.84;;;11.07;83.46
48846;BME280;34665;51.886;5.436;2023-03-03T03:09:18;102336.22;;;11.16;82.58
48846;BME280;34665;51.886;5.436;2023-03-03T03:11:46;102334.81;;;11.03;82.71
48846;BME280;34665;51.886;5.436;2023-03-03T03:14:13;102338.75;;;10.83;83.76
48846;BME280;34665;51.886;5.436;2023-03-03T03:16:41;102341.63;;;10.89;83.96
48846;BME280;34665;51.886;5.436;2023-03-03T03:19:07;102344.97;;;10.92;83.31
48846;BME280;34665;51.886;5.436;2023-03-03T03:21:34;102346.66;;;10.93;82.86
48846;BME280;34665;51.886;5.436;2023-03-03T03:24:01;102345.00;;;11.43;80.65
48846;BME280;34665;51.886;5.436;2023-03-03T03:26:26;102350.44;;;11.16;80.71
48846;BME280;34665;51.886;5.436;2023-03-03T03:28:52;102349.41;;;11.09;80.60
48846;BME280;34665;51.886;5.436;2023-03-03T03:31:19;102341.25;;;11.19;80.78
48846;BME280;34665;51.886;5.436;2023-03-03T03:33:46;102338.56;;;11.19;79.96
48846;BME280;34665;51.886;5.436;2023-03-03T03:36:13;102350.00;;;11.38;79.43
48846;BME280;34665;51.886;5.436;2023-03-03T03:38:40;102350.88;;;11.03;82.07
48846;BME280;34665;51.886;5.436;2023-03-03T03:41:07;102346.72;;;11.09;80.61
48846;BME280;34665;51.886;5.436;2023-03-03T03:43:34;102351.97;;;11.27;79.99
48846;BME280;34665;51.886;5.436;2023-03-03T03:46:01;102356.41;;;10.67;81.02
48846;BME280;34665;51.886;5.436;2023-03-03T03:48:28;102348.75;;;10.72;82.02
48846;BME280;34665;51.886;5.436;2023-03-03T03:50:54;102347.06;;;10.71;83.59
48846;BME280;34665;51.886;5.436;2023-03-03T03:53:22;102347.22;;;10.70;83.38
48846;BME280;34665;51.886;5.436;2023-03-03T03:55:48;102352.09;;;10.74;82.46
48846;BME280;34665;51.886;5.436;2023-03-03T03:58:15;102348.41;;;10.75;82.39
48846;BME280;34665;51.886;5.436;2023-03-03T04:00:46;102348.75;;;10.46;84.04
48846;BME280;34665;51.886;5.436;2023-03-03T04:03:11;102346.47;;;10.33;84.23
48846;BME280;34665;51.886;5.436;2023-03-03T04:05:42;102349.19;;;10.59;83.01
48846;BME280;34665;51.886;5.436;2023-03-03T04:08:09;102360.31;;;10.73;82.36
48846;BME280;34665;51.886;5.436;2023-03-03T04:10:35;102355.34;;;10.95;81.03
48846;BME280;34665;51.886;5.436;2023-03-03T04:13:03;102350.31;;;10.83;81.21
48846;BME280;34665;51.886;5.436;2023-03-03T04:15:30;102351.38;;;10.99;79.99
48846;BME280;34665;51.886;5.436;2023-03-03T04:17:58;102354.56;;;11.02;79.59
48846;BME280;34665;51.886;5.436;2023-03-03T04:20:24;102355.97;;;11.23;78.53
48846;BME280;34665;51.886;5.436;2023-03-03T04:22:51;102362.78;;;11.01;78.78
48846;BME280;34665;51.886;5.436;2023-03-03T04:25:18;102356.81;;;10.81;79.51
48846;BME280;34665;51.886;5.436;2023-03-03T04:27:45;102349.38;;;10.66;80.15
48846;BME280;34665;51.886;5.436;2023-03-03T04:30:13;102351.78;;;10.78;79.83
48846;BME280;34665;51.886;5.436;2023-03-03T04:32:41;102354.66;;;10.84;79.20
48846;BME280;34665;51.886;5.436;2023-03-03T04:35:10;102349.19;;;10.59;80.49
48846;BME280;34665;51.886;5.436;2023-03-03T04:37:39;102354.19;;;10.89;80.21
48846;BME280;34665;51.886;5.436;2023-03-03T04:40:06;102360.72;;;10.95;79.13
48846;BME280;34665;51.886;5.436;2023-03-03T04:42:33;102355.25;;;10.70;80.37
48846;BME280;34665;51.886;5.436;2023-03-03T04:44:59;102362.66;;;10.50;81.47
48846;BME280;34665;51.886;5.436;2023-03-03T04:47:26;102353.31;;;10.09;82.45
48846;BME280;34665;51.886;5.436;2023-03-03T04:49:52;102363.28;;;10.43;82.38
48846;BME280;34665;51.886;5.436;2023-03-03T04:52:18;102371.94;;;10.64;81.29
48846;BME280;34665;51.886;5.436;2023-03-03T04:54:43;102367.63;;;10.71;81.20
48846;BME280;34665;51.886;5.436;2023-03-03T04:57:09;102370.44;;;10.61;81.46
48846;BME280;34665;51.886;5.436;2023-03-03T04:59:35;102371.16;;;10.27;82.75
48846;BME280;34665;51.886;5.436;2023-03-03T05:02:01;102371.06;;;10.37;83.28
48846;BME280;34665;51.886;5.436;2023-03-03T05:04:28;102371.31;;;10.43;83.24
48846;BME280;34665;51.886;5.436;2023-03-03T05:06:54;102369.06;;;10.39;83.26
48846;BME280;34665;51.886;5.436;2023-03-03T05:09:21;102380.75;;;10.38;82.64
48846;BME280;34665;51.886;5.436;2023-03-03T05:11:47;102376.88;;;10.50;82.47
48846;BME280;34665;51.886;5.436;2023-03-03T05:14:13;102377.38;;;10.54;82.50
48846;BME280;34665;51.886;5.436;2023-03-03T05:16:38;102373.03;;;10.53;82.83
48846;BME280;34665;51.886;5.436;2023-03-03T05:19:03;102369.03;;;10.57;82.71
48846;BME280;34665;51.886;5.436;2023-03-03T05:21:29;102373.41;;;10.58;82.83
48846;BME280;34665;51.886;5.436;2023-03-03T05:23:55;102372.97;;;10.71;81.81
48846;BME280;34665;51.886;5.436;2023-03-03T05:26:20;102380.22;;;10.79;81.59
48846;BME280;34665;51.886;5.436;2023-03-03T05:28:46;102375.81;;;10.96;80.99
48846;BME280;34665;51.886;5.436;2023-03-03T05:31:13;102377.59;;;10.87;81.15
48846;BME280;34665;51.886;5.436;2023-03-03T05:33:38;102382.38;;;11.10;80.12
48846;BME280;34665;51.886;5.436;2023-03-03T05:36:04;102384.31;;;10.91;81.07
48846;BME280;34665;51.886;5.436;2023-03-03T05:38:29;102382.50;;;11.00;80.88
48846;BME280;34665;51.886;5.436;2023-03-03T05:40:55;102386.06;;;11.09;80.61
48846;BME280;34665;51.886;5.436;2023-03-03T05:43:20;102383.06;;;11.12;80.35
48846;BME280;34665;51.886;5.436;2023-03-03T05:45:45;102379.94;;;10.90;80.23
48846;BME280;34665;51.886;5.436;2023-03-03T05:48:11;102380.94;;;10.89;81.02
48846;BME280;34665;51.886;5.436;2023-03-03T05:50:37;102379.38;;;10.78;81.50
48846;BME280;34665;51.886;5.436;2023-03-03T05:53:03;102383.44;;;10.90;81.02
48846;BME280;34665;51.886;5.436;2023-03-03T05:55:28;102376.84;;;11.03;80.82
48846;BME280;34665;51.886;5.436;2023-03-03T05:57:54;102387.00;;;10.99;80.57
48846;BME280;34665;51.886;5.436;2023-03-03T06:00:20;102381.94;;;10.88;81.02
48846;BME280;34665;51.886;5.436;2023-03-03T06:02:45;102382.41;;;11.18;80.67
48846;BME280;34665;51.886;5.436;2023-03-03T06:05:11;102387.09;;;11.16;80.13
48846;BME280;34665;51.886;5.436;2023-03-03T06:07:37;102391.25;;;11.18;80.28
48846;BME280;34665;51.886;5.436;2023-03-03T06:10:03;102390.31;;;11.28;79.30
48846;BME280;34665;51.886;5.436;2023-03-03T06:12:32;102389.97;;;11.23;79.69
48846;BME280;34665;51.886;5.436;2023-03-03T06:14:58;102397.91;;;10.98;80.64
48846;BME280;34665;51.886;5.436;2023-03-03T06:17:23;102407.88;;;10.87;81.34
48846;BME280;34665;51.886;5.436;2023-03-03T06:19:48;102402.59;;;11.04;81.02
48846;BME280;34665;51.886;5.436;2023-03-03T06:22:14;102408.44;;;10.99;80.44
48846;BME280;34665;51.886;5.436;2023-03-03T06:24:40;102414.41;;;11.19;79.47
48846;BME280;34665;51.886;5.436;2023-03-03T06:27:05;102409.19;;;10.83;80.61
48846;BME280;34665;51.886;5.436;2023-03-03T06:29:31;102415.47;;;11.00;80.27
48846;BME280;34665;51.886;5.436;2023-03-03T06:31:56;102414.69;;;11.16;79.21
48846;BME280;34665;51.886;5.436;2023-03-03T06:34:22;102415.00;;;11.13;79.17
48846;BME280;34665;51.886;5.436;2023-03-03T06:36:47;102419.03;;;10.83;79.62
48846;BME280;34665;51.886;5.436;2023-03-03T06:39:13;102422.50;;;11.01;79.75
48846;BME280;34665;51.886;5.436;2023-03-03T06:41:39;102422.13;;;11.31;78.80
48846;BME280;34665;51.886;5.436;2023-03-03T06:44:04;102430.91;;;10.80;80.00
48846;BME280;34665;51.886;5.436;2023-03-03T06:46:30;102428.69;;;11.02;80.38
48846;BME280;34665;51.886;5.436;2023-03-03T06:48:55;102428.28;;;11.23;79.61
48846;BME280;34665;51.886;5.436;2023-03-03T06:51:24;102436.94;;;11.09;80.01
48846;BME280;34665;51.886;5.436;2023-03-03T06:53:54;102432.81;;;11.23;79.43
48846;BME280;34665;51.886;5.436;2023-03-03T06:56:23;102438.28;;;11.13;79.66
48846;BME280;34665;51.886;5.436;2023-03-03T06:58:48;102445.88;;;11.26;78.96
48846;BME280;34665;51.886;5.436;2023-03-03T07:01:16;102446.88;;;10.90;80.21
48846;BME280;34665;51.886;5.436;2023-03-03T07:03:42;102437.88;;;10.99;80.43
48846;BME280;34665;51.886;5.436;2023-03-03T07:06:21;102452.00;;;11.10;80.81
48846;BME280;34665;51.886;5.436;2023-03-03T07:08:48;102447.69;;;11.17;80.47
48846;BME280;34665;51.886;5.436;2023-03-03T07:11:17;102448.38;;;10.93;81.73
48846;BME280;34665;51.886;5.436;2023-03-03T07:13:49;102454.06;;;10.63;83.04
48846;BME280;34665;51.886;5.436;2023-03-03T07:16:16;102454.22;;;10.88;83.05
48846;BME280;34665;51.886;5.436;2023-03-03T07:18:58;102456.78;;;11.32;80.82
48846;BME280;34665;51.886;5.436;2023-03-03T07:21:34;102464.97;;;11.31;81.23
48846;BME280;34665;51.886;5.436;2023-03-03T07:26:40;102473.47;;;11.26;81.59
48846;BME280;34665;51.886;5.436;2023-03-03T07:29:20;102472.66;;;11.26;81.84
48846;BME280;34665;51.886;5.436;2023-03-03T07:31:47;102473.41;;;10.83;84.41
48846;BME280;34665;51.886;5.436;2023-03-03T07:36:54;102471.41;;;11.12;83.93
48846;BME280;34665;51.886;5.436;2023-03-03T07:39:36;102469.06;;;11.09;83.98
48846;BME280;34665;51.886;5.436;2023-03-03T07:45:29;102473.53;;;11.35;82.83
48846;BME280;34665;51.886;5.436;2023-03-03T07:48:24;102480.25;;;11.39;83.05
48846;BME280;34665;51.886;5.436;2023-03-03T07:50:51;102475.56;;;11.41;83.39
48846;BME280;34665;51.886;5.436;2023-03-03T07:53:28;102479.63;;;11.53;82.86
48846;BME280;34665;51.886;5.436;2023-03-03T07:55:54;102486.16;;;11.51;83.11
48846;BME280;34665;51.886;5.436;2023-03-03T07:58:21;102483.03;;;11.64;82.72
48846;BME280;34665;51.886;5.436;2023-03-03T08:01:28;102487.66;;;11.53;83.44
48846;BME280;34665;51.886;5.436;2023-03-03T08:03:57;102494.44;;;11.66;83.32
48846;BME280;34665;51.886;5.436;2023-03-03T08:08:51;102501.78;;;11.64;83.33
48846;BME280;34665;51.886;5.436;2023-03-03T08:11:16;102487.50;;;11.55;83.69
48846;BME280;34665;51.886;5.436;2023-03-03T08:13:42;102500.09;;;11.62;83.10
48846;BME280;34665;51.886;5.436;2023-03-03T08:18:39;102505.53;;;11.79;82.62
48846;BME280;34665;51.886;5.436;2023-03-03T08:21:18;102501.72;;;11.90;82.33
48846;BME280;34665;51.886;5.436;2023-03-03T08:23:44;102520.34;;;12.00;81.88
48846;BME280;34665;51.886;5.436;2023-03-03T08:26:10;102510.41;;;11.41;84.42
48846;BME280;34665;51.886;5.436;2023-03-03T08:28:38;102514.53;;;11.70;84.15
48846;BME280;34665;51.886;5.436;2023-03-03T08:31:03;102515.47;;;11.95;83.07
48846;BME280;34665;51.886;5.436;2023-03-03T08:33:29;102523.66;;;11.85;83.38
48846;BME280;34665;51.886;5.436;2023-03-03T08:35:54;102523.75;;;12.10;82.25
48846;BME280;34665;51.886;5.436;2023-03-03T08:38:21;102527.09;;;12.04;82.42
48846;BME280;34665;51.886;5.436;2023-03-03T08:40:47;102523.28;;;12.40;81.20
48846;BME280;34665;51.886;5.436;2023-03-03T08:43:14;102523.44;;;12.38;80.69
48846;BME280;34665;51.886;5.436;2023-03-03T08:45:44;102529.28;;;12.25;80.64
48846;BME280;34665;51.886;5.436;2023-03-03T08:48:09;102531.69;;;12.45;79.79
48846;BME280;34665;51.886;5.436;2023-03-03T08:50:35;102529.84;;;12.54;79.73
48846;BME280;34665;51.886;5.436;2023-03-03T08:53:00;102531.53;;;12.71;78.68
48846;BME280;34665;51.886;5.436;2023-03-03T08:55:26;102530.16;;;12.84;77.92
48846;BME280;34665;51.886;5.436;2023-03-03T08:57:51;102526.81;;;12.82;78.30
48846;BME280;34665;51.886;5.436;2023-03-03T09:00:17;102533.69;;;12.84;77.46
48846;BME280;34665;51.886;5.436;2023-03-03T09:02:44;102526.63;;;13.08;76.13
48846;BME280;34665;51.886;5.436;2023-03-03T09:05:10;102528.81;;;12.96;76.58
48846;BME280;34665;51.886;5.436;2023-03-03T09:07:37;102536.53;;;12.83;76.91
48846;BME280;34665;51.886;5.436;2023-03-03T09:10:03;102534.88;;;12.82;77.04
48846;BME280;34665;51.886;5.436;2023-03-03T09:12:34;102529.47;;;12.24;78.46
48846;BME280;34665;51.886;5.436;2023-03-03T09:15:11;102536.19;;;12.36;78.97
48846;BME280;34665;51.886;5.436;2023-03-03T09:17:37;102540.03;;;12.33;79.06
48846;BME280;34665;51.886;5.436;2023-03-03T09:20:26;102541.25;;;12.81;77.73
48846;BME280;34665;51.886;5.436;2023-03-03T09:22:53;102536.56;;;12.50;77.82
48846;BME280;34665;51.886;5.436;2023-03-03T09:25:30;102535.19;;;13.03;76.32
48846;BME280;34665;51.886;5.436;2023-03-03T09:27:57;102530.66;;;12.96;75.68
48846;BME280;34665;51.886;5.436;2023-03-03T09:30:33;102543.56;;;13.09;74.02
48846;BME280;34665;51.886;5.436;2023-03-03T09:33:01;102536.31;;;13.34;74.14
48846;BME280;34665;51.886;5.436;2023-03-03T09:35:36;102538.78;;;13.92;71.81
48846;BME280;34665;51.886;5.436;2023-03-03T09:38:33;102539.53;;;14.09;71.25
48846;BME280;34665;51.886;5.436;2023-03-03T09:46:32;102544.38;;;17.13;61.26
48846;BME280;34665;51.886;5.436;2023-03-03T09:54:58;102558.47;;;15.84;61.22
48846;BME280;34665;51.886;5.436;2023-03-03T10:05:41;102563.19;;;18.25;56.82
48846;BME280;34665;51.886;5.436;2023-03-03T10:11:01;102574.19;;;21.44;49.02
48846;BME280;34665;51.886;5.436;2023-03-03T10:16:21;102574.00;;;22.68;45.06
48846;BME280;34665;51.886;5.436;2023-03-03T10:19:35;102572.28;;;21.82;45.45
48846;BME280;34665;51.886;5.436;2023-03-03T10:21:50;102571.41;;;21.07;45.97
48846;BME280;34665;51.886;5.436;2023-03-03T10:24:27;102570.34;;;20.32;46.54
48846;BME280;34665;51.886;5.436;2023-03-03T10:30:07;102555.97;;;18.93;48.56
48846;BME280;34665;51.886;5.436;2023-03-03T10:35:29;102569.06;;;18.49;49.36
48846;BME280;34665;51.886;5.436;2023-03-03T10:38:22;102570.75;;;19.24;49.14
48846;BME280;34665;51.886;5.436;2023-03-03T10:44:56;102577.19;;;22.23;44.30
48846;BME280;34665;51.886;5.436;2023-03-03T10:47:33;102571.59;;;23.55;41.81
48846;BME280;34665;51.886;5.436;2023-03-03T10:50:33;102578.00;;;24.99;39.89
48846;BME280;34665;51.886;5.436;2023-03-03T10:55:56;102580.63;;;25.51;37.93
48846;BME280;34665;51.886;5.436;2023-03-03T10:58:45;102584.81;;;26.36;36.25
48846;BME280;34665;51.886;5.436;2023-03-03T11:03:47;102580.94;;;25.76;35.77
48846;BME280;34665;51.886;5.436;2023-03-03T11:06:24;102575.91;;;24.72;37.73
48846;BME280;34665;51.886;5.436;2023-03-03T11:09:03;102573.66;;;25.43;36.28
48846;BME280;34665;51.886;5.436;2023-03-03T11:11:35;102584.63;;;26.47;36.15
48846;BME280;34665;51.886;5.436;2023-03-03T11:17:15;102576.72;;;28.22;32.33
48846;BME280;34665;51.886;5.436;2023-03-03T11:22:50;102568.88;;;27.61;33.48
48846;BME280;34665;51.886;5.436;2023-03-03T11:25:22;102574.34;;;27.51;33.82
48846;BME280;34665;51.886;5.436;2023-03-03T11:33:22;102572.13;;;26.57;33.51
48846;BME280;34665;51.886;5.436;2023-03-03T11:36:13;102571.13;;;27.11;33.21
48846;BME280;34665;51.886;5.436;2023-03-03T11:38:50;102576.72;;;28.53;31.03
48846;BME280;34665;51.886;5.436;2023-03-03T11:41:25;102571.41;;;29.74;29.48
48846;BME280;34665;51.886;5.436;2023-03-03T11:44:03;102564.38;;;29.57;30.26
48846;BME280;34665;51.886;5.436;2023-03-03T11:46:39;102564.66;;;30.01;29.45
48846;BME280;34665;51.886;5.436;2023-03-03T11:49:21;102563.72;;;31.04;29.74
48846;BME280;34665;51.886;5.436;2023-03-03T11:54:25;102562.19;;;31.80;29.25
48846;BME280;34665;51.886;5.436;2023-03-03T11:56:59;102565.38;;;31.30;28.54
48846;BME280;34665;51.886;5.436;2023-03-03T12:04:35;102555.22;;;29.67;29.08
48846;BME280;34665;51.886;5.436;2023-03-03T12:10:05;102559.13;;;32.01;26.31
48846;BME280;34665;51.886;5.436;2023-03-03T12:12:44;102555.44;;;32.86;26.61
48846;BME280;34665;51.886;5.436;2023-03-03T12:15:27;102549.03;;;32.10;25.94
48846;BME280;34665;51.886;5.436;2023-03-03T12:21:14;102547.38;;;31.32;27.19
48846;BME280;34665;51.886;5.436;2023-03-03T12:23:55;102538.44;;;31.79;27.67
48846;BME280;34665;51.886;5.436;2023-03-03T12:26:42;102546.09;;;32.82;26.25
48846;BME280;34665;51.886;5.436;2023-03-03T12:29:41;102534.44;;;31.03;26.55
48846;BME280;34665;51.886;5.436;2023-03-03T12:32:31;102526.06;;;28.80;27.33
48846;BME280;34665;51.886;5.436;2023-03-03T12:40:18;102521.38;;;29.56;29.67
48846;BME280;34665;51.886;5.436;2023-03-03T12:42:56;102524.75;;;30.82;26.56
48846;BME280;34665;51.886;5.436;2023-03-03T12:45:43;102530.94;;;31.41;26.03
48846;BME280;34665;51.886;5.436;2023-03-03T12:48:18;102524.13;;;29.96;26.07
48846;BME280;34665;51.886;5.436;2023-03-03T12:50:58;102518.09;;;28.47;27.36
48846;BME280;34665;51.886;5.436;2023-03-03T12:59:12;102519.69;;;31.57;25.29
48846;BME280;34665;51.886;5.436;2023-03-03T13:07:18;102519.34;;;31.20;24.42
48846;BME280;34665;51.886;5.436;2023-03-03T13:12:39;102512.38;;;30.50;25.43
48846;BME280;34665;51.886;5.436;2023-03-03T13:15:29;102510.19;;;30.76;25.08
48846;BME280;34665;51.886;5.436;2023-03-03T13:23:30;102490.25;;;29.51;26.12
48846;BME280;34665;51.886;5.436;2023-03-03T13:26:04;102485.69;;;29.30;27.06
48846;BME280;34665;51.886;5.436;2023-03-03T13:31:39;102485.56;;;32.33;24.41
48846;BME280;34665;51.886;5.436;2023-03-03T13:34:22;102494.38;;;33.05;24.83
48846;BME280;34665;51.886;5.436;2023-03-03T13:36:54;102498.59;;;30.44;24.52
48846;BME280;34665;51.886;5.436;2023-03-03T13:39:28;102495.25;;;31.26;24.03
48846;BME280;34665;51.886;5.436;2023-03-03T13:42:02;102494.69;;;32.47;23.50
48846;BME280;34665;51.886;5.436;2023-03-03T13:44:33;102491.44;;;32.12;23.71
48846;BME280;34665;51.886;5.436;2023-03-03T13:49:59;102499.13;;;33.41;23.23
48846;BME280;34665;51.886;5.436;2023-03-03T13:52:28;102494.66;;;34.14;23.13
48846;BME280;34665;51.886;5.436;2023-03-03T14:00:38;102475.19;;;31.15;27.70
48846;BME280;34665;51.886;5.436;2023-03-03T14:06:03;102480.69;;;29.32;25.44
48846;BME280;34665;51.886;5.436;2023-03-03T14:16:51;102457.53;;;27.43;29.45
48846;BME280;34665;51.886;5.436;2023-03-03T14:19:25;102460.00;;;27.40;29.23
48846;BME280;34665;51.886;5.436;2023-03-03T14:22:10;102451.16;;;27.17;28.36
48846;BME280;34665;51.886;5.436;2023-03-03T14:24:59;102448.88;;;26.98;32.39
48846;BME280;34665;51.886;5.436;2023-03-03T14:35:29;102461.25;;;30.82;25.18
48846;BME280;34665;51.886;5.436;2023-03-03T14:38:11;102446.81;;;29.77;26.15
48846;BME280;34665;51.886;5.436;2023-03-03T14:40:39;102452.84;;;28.68;25.96
48846;BME280;34665;51.886;5.436;2023-03-03T14:43:23;102452.94;;;27.90;27.05
48846;BME280;34665;51.886;5.436;2023-03-03T14:45:50;102448.06;;;26.93;29.32
48846;BME280;34665;51.886;5.436;2023-03-03T14:48:19;102442.78;;;26.38;28.22
48846;BME280;34665;51.886;5.436;2023-03-03T14:53:41;102432.38;;;24.97;29.03
48846;BME280;34665;51.886;5.436;2023-03-03T14:56:22;102423.09;;;24.59;30.37
48846;BME280;34665;51.886;5.436;2023-03-03T14:58:53;102430.50;;;24.41;32.00
48846;BME280;34665;51.886;5.436;2023-03-03T15:01:29;102435.66;;;24.20;34.00
48846;BME280;34665;51.886;5.436;2023-03-03T15:06:33;102430.53;;;24.07;31.03
48846;BME280;34665;51.886;5.436;2023-03-03T15:11:58;102428.94;;;23.48;31.91
48846;BME280;34665;51.886;5.436;2023-03-03T15:14:30;102431.47;;;23.38;30.81
48846;BME280;34665;51.886;5.436;2023-03-03T15:20:03;102419.94;;;22.95;32.57
48846;BME280;34665;51.886;5.436;2023-03-03T15:22:47;102415.84;;;22.80;35.63
48846;BME280;34665;51.886;5.436;2023-03-03T15:25:20;102418.00;;;22.66;34.63
48846;BME280;34665;51.886;5.436;2023-03-03T15:27:50;102409.31;;;22.45;36.47
48846;BME280;34665;51.886;5.436;2023-03-03T15:30:23;102407.31;;;22.29;36.32
48846;BME280;34665;51.886;5.436;2023-03-03T15:33:11;102406.81;;;22.32;36.14
48846;BME280;34665;51.886;5.436;2023-03-03T15:35:53;102410.88;;;22.29;35.09
48846;BME280;34665;51.886;5.436;2023-03-03T15:38:45;102411.56;;;22.01;34.69
48846;BME280;34665;51.886;5.436;2023-03-03T15:44:24;102404.00;;;22.27;35.76
48846;BME280;34665;51.886;5.436;2023-03-03T15:52:42;102405.22;;;21.15;34.41
48846;BME280;34665;51.886;5.436;2023-03-03T16:03:37;102400.44;;;21.29;35.21
48846;BME280;34665;51.886;5.436;2023-03-03T16:06:17;102400.22;;;21.12;37.33